Terminal Aerodrome Forecast
Issued by NWS

Home | Current Version | Previous Version | Text Only | Print | Product List | Glossary On
Versions: 1 2 3 4 5 6 7 8 9 10 11 12 13 14
000
FTAK31 PAJN 221100
TAFAPG
TAF
PAPG 221123Z 2212/2312 21008KT P6SM -SHRA BKN025 OVC050
     FM221500 VRB03KT 4SM -SHRA BR BKN015 OVC025
     FM221700 VRB03KT 5SM -SHRA BKN030 OVC040
     FM222100 06005KT P6SM -SHRA SCT035 OVC060
     FM230100 10005KT P6SM -SHRA SCT035 OVC060
      AMD LTD TO CLD VIS AND WIND 2212/2215=

USA.gov is the U.S. government's official web portal to all federal, state and local government web resources and services.